Time;durP1;ratioP1;P1;durP2;ratioP2;P2;SDS_P1;SDS_P2;PMS_P1;PMS_P2;Temp;Humidity;BMP_temperature;BMP_pressure;BME280_temperature;BME280_humidity;BME280_pressure;Samples;Min_cycle;Max_cycle;Signal;HPM_P1;HPM_P2
2022/02/28 00:00:47;;;;;;;18.47;13.40;;;;;;;1.75;69.43;101943.47;5052653;28;20520;-67
2022/02/28 00:03:16;;;;;;;20.03;13.07;;;;;;;1.77;69.32;101953.06;5050478;28;20493;-67
2022/02/28 00:05:43;;;;;;;19.73;13.63;;;;;;;1.73;69.54;101943.50;5046859;28;20516;-67
2022/02/28 00:08:09;;;;;;;19.27;12.70;;;;;;;1.69;69.42;101948.00;5059386;28;20481;-66
2022/02/28 00:10:36;;;;;;;20.30;13.10;;;;;;;1.69;69.62;101955.03;5042013;28;21245;-67
2022/02/28 00:13:02;;;;;;;19.70;13.50;;;;;;;1.63;69.72;101949.91;5043626;28;20497;-67
2022/02/28 00:15:29;;;;;;;20.17;14.10;;;;;;;1.65;69.79;101958.66;5055165;28;20473;-66
2022/02/28 00:17:55;;;;;;;17.90;13.60;;;;;;;1.59;69.80;101953.56;5044409;28;20529;-66
2022/02/28 00:20:23;;;;;;;16.37;12.47;;;;;;;1.60;69.91;101956.16;5043421;28;20458;-67
2022/02/28 00:22:51;;;;;;;20.67;12.57;;;;;;;1.54;70.03;101953.66;5061189;28;20508;-66
2022/02/28 00:25:18;;;;;;;19.43;13.07;;;;;;;1.56;69.92;101953.63;5045414;28;20468;-67
2022/02/28 00:27:46;;;;;;;20.77;13.53;;;;;;;1.55;70.01;101950.16;5042463;28;20438;-67
2022/02/28 00:30:13;;;;;;;18.73;12.97;;;;;;;1.48;70.28;101943.31;5043275;28;20544;-67
2022/02/28 00:32:40;;;;;;;18.63;12.40;;;;;;;1.53;70.27;101938.78;5054252;28;20481;-67
2022/02/28 00:35:08;;;;;;;16.67;13.83;;;;;;;1.55;70.17;101944.00;5057630;28;20525;-67
2022/02/28 00:37:36;;;;;;;21.40;15.23;;;;;;;1.53;70.07;101944.06;5041561;28;20505;-66
2022/02/28 00:40:03;;;;;;;17.97;12.53;;;;;;;1.48;70.15;101944.16;5055492;28;20526;-67
2022/02/28 00:42:30;;;;;;;22.40;13.13;;;;;;;1.44;69.97;101952.19;5046908;28;20505;-66
2022/02/28 00:44:57;;;;;;;17.00;12.30;;;;;;;1.45;69.67;101961.84;5057941;28;20442;-67
2022/02/28 00:47:23;;;;;;;22.53;14.10;;;;;;;1.38;69.75;101966.38;5041506;28;20556;-67
2022/02/28 00:49:50;;;;;;;22.13;12.97;;;;;;;1.35;69.91;101965.59;5040772;28;20529;-67
2022/02/28 00:52:17;;;;;;;38.27;14.23;;;;;;;1.25;70.13;101960.56;5042781;28;20485;-67
2022/02/28 00:54:45;;;;;;;20.63;14.17;;;;;;;1.19;70.30;101959.88;5041854;28;20478;-68
2022/02/28 00:57:12;;;;;;;19.90;13.00;;;;;;;1.09;71.00;101961.84;5052748;28;20465;-65
2022/02/28 00:59:38;;;;;;;20.23;12.87;;;;;;;1.01;71.35;101961.16;5041434;28;20460;-67
2022/02/28 01:02:05;;;;;;;20.53;13.87;;;;;;;0.98;71.46;101962.13;5053961;28;21076;-68
2022/02/28 01:04:32;;;;;;;21.57;15.70;;;;;;;0.96;71.59;101963.06;5059053;28;20972;-66
2022/02/28 01:06:58;;;;;;;20.90;14.40;;;;;;;0.93;72.09;101964.00;5043495;28;20561;-67
2022/02/28 01:09:25;;;;;;;19.23;13.53;;;;;;;0.93;72.23;101958.72;5042826;28;20484;-67
2022/02/28 01:11:53;;;;;;;23.10;13.97;;;;;;;0.96;72.55;101953.38;5054634;28;20509;-67
2022/02/28 01:14:19;;;;;;;23.47;13.27;;;;;;;0.99;72.45;101958.59;5042313;28;20453;-67
2022/02/28 01:16:46;;;;;;;17.93;13.50;;;;;;;1.02;72.63;101945.31;5053689;28;20453;-66
2022/02/28 01:19:13;;;;;;;22.83;14.80;;;;;;;1.07;72.44;101953.13;5042761;28;20484;-66
2022/02/28 01:21:39;;;;;;;19.37;14.10;;;;;;;1.19;72.01;101944.06;5043927;28;20974;-66
2022/02/28 01:24:06;;;;;;;18.07;12.70;;;;;;;1.17;71.95;101948.50;5040823;28;20485;-65
2022/02/28 01:26:34;;;;;;;20.73;13.90;;;;;;;1.11;71.82;101944.22;5040559;28;20506;-66
2022/02/28 01:29:02;;;;;;;18.47;13.13;;;;;;;1.15;71.88;101942.38;5039229;28;20450;-66
2022/02/28 01:31:28;;;;;;;21.33;12.97;;;;;;;1.22;71.72;101941.34;5020628;28;20524;-66
2022/02/28 01:33:55;;;;;;;17.17;13.00;;;;;;;1.21;71.48;101936.97;5038464;28;20465;-66
2022/02/28 01:36:22;;;;;;;18.43;12.53;;;;;;;1.23;71.20;101937.78;5042508;28;20530;-65
2022/02/28 01:38:48;;;;;;;18.60;13.80;;;;;;;1.26;71.05;101935.09;5041127;28;20974;-65
2022/02/28 01:41:15;;;;;;;19.70;13.87;;;;;;;1.19;71.05;101939.63;5045784;28;20529;-66
2022/02/28 01:43:41;;;;;;;19.07;11.90;;;;;;;1.14;71.23;101931.00;5043877;28;20496;-66
2022/02/28 01:46:09;;;;;;;20.33;14.27;;;;;;;1.10;71.51;101930.19;5060140;28;20523;-67
2022/02/28 01:48:36;;;;;;;18.30;13.03;;;;;;;1.10;71.51;101934.63;5040252;28;20579;-65
2022/02/28 01:51:03;;;;;;;19.70;13.50;;;;;;;1.13;71.62;101931.91;5041778;28;20457;-66
2022/02/28 01:53:29;;;;;;;19.80;14.03;;;;;;;1.10;71.53;101924.06;5040767;28;20469;-67
2022/02/28 01:55:56;;;;;;;23.70;12.97;;;;;;;1.07;71.67;101924.16;5044930;28;20509;-68
2022/02/28 01:58:23;;;;;;;17.27;12.93;;;;;;;1.01;71.64;101917.28;5054070;28;20536;-68
2022/02/28 02:00:49;;;;;;;25.13;13.20;;;;;;;1.01;71.68;101925.16;5044145;28;20478;-65
2022/02/28 02:03:17;;;;;;;21.50;12.80;;;;;;;1.02;71.74;101923.41;5047014;28;20580;-65
2022/02/28 02:05:44;;;;;;;18.90;13.60;;;;;;;1.02;71.82;101920.75;5058188;28;20504;-64
2022/02/28 02:08:10;;;;;;;21.07;13.83;;;;;;;1.02;71.75;101920.75;5061230;28;20519;-65
2022/02/28 02:10:37;;;;;;;21.90;14.00;;;;;;;1.01;71.66;101921.66;5046240;28;20488;-64
2022/02/28 02:13:03;;;;;;;20.53;12.67;;;;;;;1.00;71.67;101923.44;5050834;28;20437;-65
2022/02/28 02:15:30;;;;;;;19.57;12.13;;;;;;;0.98;71.79;101930.50;5056535;28;20521;-65
2022/02/28 02:17:58;;;;;;;21.60;14.17;;;;;;;0.91;71.87;101918.41;5049009;28;20474;-65
2022/02/28 02:20:37;;;;;;;19.97;13.47;;;;;;;0.87;71.89;101912.34;5040459;28;20457;-66
2022/02/28 02:23:06;;;;;;;18.70;13.57;;;;;;;0.84;71.94;101917.69;5040880;28;20829;-65
2022/02/28 02:25:33;;;;;;;24.53;14.23;;;;;;;0.79;72.15;101916.06;5042145;28;20478;-64
2022/02/28 02:28:00;;;;;;;20.57;12.23;;;;;;;0.74;72.30;101916.16;5060636;28;20451;-64
2022/02/28 02:30:27;;;;;;;19.70;12.70;;;;;;;0.69;72.19;101918.03;5049023;28;20520;-64
2022/02/28 02:32:54;;;;;;;24.13;13.07;;;;;;;0.70;72.06;101909.25;5052850;28;20927;-64
2022/02/28 02:35:20;;;;;;;22.90;14.20;;;;;;;0.61;72.19;101912.97;5060718;28;20480;-65
2022/02/28 02:37:49;;;;;;;26.30;13.93;;;;;;;0.56;72.86;101907.81;5044464;28;20441;-65
2022/02/28 02:40:15;;;;;;;19.33;13.23;;;;;;;0.55;73.37;101903.44;5042895;28;20521;-64
2022/02/28 02:42:42;;;;;;;19.17;12.90;;;;;;;0.67;73.36;101914.59;5043566;28;20478;-65
2022/02/28 02:45:09;;;;;;;21.03;14.20;;;;;;;0.68;73.22;101906.66;5045200;28;20456;-65
2022/02/28 02:47:36;;;;;;;18.70;14.10;;;;;;;0.71;73.06;101910.97;5062309;28;20548;-65
2022/02/28 02:50:03;;;;;;;17.10;13.47;;;;;;;0.80;72.67;101916.03;5052877;28;21009;-65
2022/02/28 02:52:29;;;;;;;22.30;15.43;;;;;;;0.87;72.19;101911.50;5057180;28;20525;-65
2022/02/28 02:54:57;;;;;;;21.03;14.40;;;;;;;0.81;72.26;101914.25;5062446;28;20520;-64
2022/02/28 02:57:24;;;;;;;22.63;13.70;;;;;;;0.74;72.61;101921.44;5062945;28;20444;-64
2022/02/28 02:59:50;;;;;;;23.70;15.10;;;;;;;0.81;72.28;101912.47;5052361;28;20493;-65
2022/02/28 03:02:17;;;;;;;20.33;13.30;;;;;;;0.69;72.62;101912.78;5051964;28;20480;-65
2022/02/28 03:04:44;;;;;;;20.13;15.07;;;;;;;0.69;72.71;101915.41;5043164;28;20632;-65
2022/02/28 03:07:17;;;;;;;18.97;12.83;;;;;;;0.70;72.63;101910.09;5061793;28;20544;-65
2022/02/28 03:09:44;;;;;;;19.67;14.30;;;;;;;0.58;72.91;101912.19;5045671;28;21097;-65
2022/02/28 03:12:13;;;;;;;19.70;13.10;;;;;;;0.51;73.29;101909.69;5044031;28;20464;-65
2022/02/28 03:14:39;;;;;;;23.40;13.80;;;;;;;0.62;73.15;101906.78;5044973;28;20521;-64
2022/02/28 03:17:06;;;;;;;21.97;13.23;;;;;;;0.64;72.80;101899.72;5050962;28;20507;-65
2022/02/28 03:19:33;;;;;;;18.50;12.57;;;;;;;0.49;73.15;101913.25;5029689;28;20488;-65
2022/02/28 03:22:00;;;;;;;15.50;12.10;;;;;;;0.51;72.90;101901.78;5062617;28;20670;-65
2022/02/28 03:24:27;;;;;;;23.37;13.53;;;;;;;0.33;73.16;101905.69;5061705;28;20565;-65
2022/02/28 03:26:53;;;;;;;24.50;13.33;;;;;;;-0.05;74.57;101898.66;5044148;28;20461;-65
2022/02/28 03:29:21;;;;;;;19.73;13.50;;;;;;;-0.13;75.12;101906.66;5049807;28;20560;-65
2022/02/28 03:31:48;;;;;;;21.07;14.67;;;;;;;-0.06;75.45;101908.28;5047680;28;20520;-64
2022/02/28 03:34:14;;;;;;;17.17;13.90;;;;;;;0.05;75.01;101907.19;5052358;28;20874;-65
2022/02/28 03:36:41;;;;;;;22.20;12.80;;;;;;;0.09;74.54;101911.50;5043337;28;20480;-64
2022/02/28 03:39:08;;;;;;;22.15;14.20;;;;;;;0.17;74.18;101910.44;5043324;28;20457;-64
2022/02/28 03:41:34;;;;;;;24.37;15.00;;;;;;;0.05;74.42;101915.06;5042244;28;20239;-65
2022/02/28 03:44:01;;;;;;;21.87;13.97;;;;;;;0.07;74.58;101913.28;5059376;28;20519;-64
2022/02/28 03:46:29;;;;;;;26.43;14.47;;;;;;;-0.06;75.20;101917.94;5051024;28;20480;-65
2022/02/28 03:48:55;;;;;;;26.67;14.50;;;;;;;-0.24;75.92;101930.56;5042733;28;20496;-65
2022/02/28 03:51:22;;;;;;;20.70;14.37;;;;;;;-0.11;76.00;101931.16;5042783;28;20282;-65
2022/02/28 03:53:48;;;;;;;23.87;14.87;;;;;;;-0.11;75.97;101925.91;5051270;28;20504;-65
2022/02/28 03:56:15;;;;;;;18.60;13.50;;;;;;;-0.03;75.59;101926.63;5050351;28;20442;-65
2022/02/28 03:58:42;;;;;;;22.53;15.27;;;;;;;0.01;75.43;101922.16;5043884;28;20521;-65
2022/02/28 04:01:09;;;;;;;19.17;14.50;;;;;;;0.07;74.95;101929.94;5049611;28;20491;-65
2022/02/28 04:03:36;;;;;;;20.93;13.50;;;;;;;0.10;74.48;101921.09;5060035;28;20509;-65
2022/02/28 04:06:03;;;;;;;21.77;14.53;;;;;;;0.07;74.33;101924.69;5054123;28;20485;-65
2022/02/28 04:08:30;;;;;;;22.90;15.60;;;;;;;0.04;74.46;101937.88;5042835;28;20445;-65
2022/02/28 04:10:57;;;;;;;23.37;15.00;;;;;;;0.01;74.74;101916.06;5054520;28;20449;-64
2022/02/28 04:13:23;;;;;;;22.55;13.63;;;;;;;-0.03;75.02;101920.50;5060626;28;20472;-64
2022/02/28 04:15:50;;;;;;;23.98;15.15;;;;;;;0.03;74.87;101917.72;5042181;28;20255;-64
2022/02/28 04:18:17;;;;;;;18.10;12.90;;;;;;;0.06;74.71;101922.09;5049028;28;20245;-65
2022/02/28 04:20:47;;;;;;;21.37;14.70;;;;;;;0.03;74.62;101912.47;5056672;28;20242;-65
2022/02/28 04:23:13;;;;;;;19.87;13.37;;;;;;;0.01;74.46;101911.66;5049791;28;20504;-66
2022/02/28 04:25:40;;;;;;;23.00;15.50;;;;;;;-0.04;74.61;101913.50;5055059;28;21175;-66
2022/02/28 04:28:06;;;;;;;25.90;14.50;;;;;;;-0.12;74.86;101908.41;5042465;28;20234;-66
2022/02/28 04:30:33;;;;;;;21.20;15.47;;;;;;;-0.05;75.08;101909.16;5042366;28;20859;-65
2022/02/28 04:33:00;;;;;;;22.75;14.18;;;;;;;-0.07;75.06;101910.94;5045356;28;20536;-64
2022/02/28 04:35:26;;;;;;;24.08;15.50;;;;;;;-0.09;75.30;101913.59;5046428;28;20199;-65
2022/02/28 04:37:54;;;;;;;24.52;14.30;;;;;;;-0.11;75.31;101910.13;5046307;28;20245;-65
2022/02/28 04:40:21;;;;;;;20.10;14.00;;;;;;;-0.10;75.33;101908.38;5057805;28;20211;-65
2022/02/28 04:42:47;;;;;;;21.52;13.80;;;;;;;-0.10;75.29;101908.38;5041772;28;20298;-65
2022/02/28 04:45:14;;;;;;;18.80;13.73;;;;;;;-0.12;75.22;101905.78;5041609;28;20220;-64
2022/02/28 04:47:41;;;;;;;25.25;14.25;;;;;;;-0.13;75.19;101904.03;5040900;28;20517;-65
2022/02/28 04:50:08;;;;;;;24.25;15.32;;;;;;;-0.15;75.20;101912.88;5061263;28;20246;-64
2022/02/28 04:52:34;;;;;;;23.20;14.10;;;;;;;-0.22;75.26;101907.72;5060440;28;20278;-65
2022/02/28 04:55:02;;;;;;;22.25;14.30;;;;;;;-0.23;75.48;101908.59;5047080;28;20205;-65
2022/02/28 04:57:29;;;;;;;24.17;15.87;;;;;;;-0.21;75.50;101898.97;5041351;28;20226;-64
2022/02/28 04:59:56;;;;;;;24.35;15.05;;;;;;;-0.20;75.51;101910.31;5053754;28;20455;-65
2022/02/28 05:02:23;;;;;;;21.70;14.13;;;;;;;-0.20;75.60;101923.47;5061316;28;20293;-65
2022/02/28 05:04:49;;;;;;;26.70;15.60;;;;;;;-0.20;75.22;101916.44;5042845;28;20217;-65
2022/02/28 05:07:16;;;;;;;22.30;14.73;;;;;;;-0.23;75.12;101924.38;5042809;28;20254;-66
2022/02/28 05:09:43;;;;;;;27.13;16.37;;;;;;;-0.25;75.27;101925.31;5041657;28;20276;-65
2022/02/28 05:12:11;;;;;;;20.80;16.13;;;;;;;-0.28;75.42;101926.25;5041113;28;20458;-65
2022/02/28 05:14:37;;;;;;;25.58;15.25;;;;;;;-0.29;75.11;101928.91;5041019;28;20478;-65
2022/02/28 05:17:04;;;;;;;23.33;15.75;;;;;;;-0.28;74.81;101941.16;5047827;28;20274;-65
2022/02/28 05:19:31;;;;;;;23.47;14.60;;;;;;;-0.29;74.75;101929.78;5042114;28;20234;-65
2022/02/28 05:21:57;;;;;;;27.07;15.73;;;;;;;-0.31;74.61;101930.69;5061275;28;20461;-66
2022/02/28 05:24:24;;;;;;;23.40;15.00;;;;;;;-0.36;74.76;101940.41;5048040;28;21160;-66
2022/02/28 05:26:51;;;;;;;20.60;14.82;;;;;;;-0.39;74.97;101942.22;5041245;28;20230;-66
2022/02/28 05:29:18;;;;;;;22.85;13.88;;;;;;;-0.42;74.78;101941.41;5040254;28;20234;-66
2022/02/28 05:31:45;;;;;;;20.60;14.95;;;;;;;-0.41;74.85;101937.91;5041478;28;20270;-66
2022/02/28 05:34:12;;;;;;;24.80;16.27;;;;;;;-0.44;75.15;101941.44;5037073;28;20314;-65
2022/02/28 05:36:38;;;;;;;25.33;16.13;;;;;;;-0.47;75.50;101943.25;5040615;28;21071;-65
2022/02/28 05:39:05;;;;;;;23.63;15.15;;;;;;;-0.51;75.42;101938.97;5039367;28;20318;-65
2022/02/28 05:41:32;;;;;;;20.00;14.50;;;;;;;-0.55;75.64;101945.16;5039544;28;20764;-65
2022/02/28 05:43:58;;;;;;;23.00;15.32;;;;;;;-0.59;75.68;101936.44;5040514;28;20564;-66
2022/02/28 05:46:26;;;;;;;23.00;16.00;;;;;;;-0.59;75.96;101942.59;5040892;28;20753;-70
2022/02/28 05:48:53;;;;;;;23.48;15.98;;;;;;;-0.54;76.03;101945.13;5042020;28;20307;-64
2022/02/28 05:51:19;;;;;;;24.58;16.20;;;;;;;-0.50;76.04;101948.59;5045513;28;20206;-66
2022/02/28 05:53:46;;;;;;;23.65;15.52;;;;;;;-0.51;76.10;101947.69;5044229;28;20230;-65
2022/02/28 05:56:13;;;;;;;24.58;16.77;;;;;;;-0.53;76.31;101946.88;5042394;28;20234;-66
2022/02/28 05:58:39;;;;;;;22.95;15.93;;;;;;;-0.53;76.43;101944.22;5044073;28;20254;-66
2022/02/28 06:01:06;;;;;;;23.52;15.98;;;;;;;-0.51;76.26;101945.06;5054698;28;20723;-66
2022/02/28 06:03:34;;;;;;;24.90;16.20;;;;;;;-0.47;75.97;101945.88;5050022;28;20309;-66
2022/02/28 06:06:01;;;;;;;22.13;15.68;;;;;;;-0.46;75.74;101952.88;5041310;28;20454;-66
2022/02/28 06:08:27;;;;;;;28.38;17.27;;;;;;;-0.42;75.66;101947.53;5044401;28;20211;-65
2022/02/28 06:10:54;;;;;;;30.20;16.70;;;;;;;-0.43;75.59;101956.31;5044304;28;20249;-65
2022/02/28 06:13:20;;;;;;;23.38;14.75;;;;;;;-0.41;75.53;101951.03;5055631;28;20290;-66
2022/02/28 06:15:47;;;;;;;25.55;15.60;;;;;;;-0.42;75.26;101958.06;5044898;28;20599;-66
2022/02/28 06:18:14;;;;;;;27.50;16.83;;;;;;;-0.48;75.29;101952.91;5043487;28;20676;-66
2022/02/28 06:20:42;;;;;;;23.50;15.13;;;;;;;-0.42;75.30;101947.53;5047629;28;20217;-66
2022/02/28 06:23:14;;;;;;;26.60;16.35;;;;;;;-0.26;75.26;101947.22;5063984;28;20218;-66
2022/02/28 06:25:40;;;;;;;31.65;18.38;;;;;;;-0.09;75.28;101946.91;5051086;28;20195;-70
2022/02/28 06:28:07;;;;;;;26.40;18.20;;;;;;;-0.11;74.87;101946.94;5063725;28;20595;-71
2022/02/28 06:30:34;;;;;;;28.60;17.50;;;;;;;-0.06;74.75;101950.34;5050503;28;20560;-65
2022/02/28 06:33:01;;;;;;;28.17;17.73;;;;;;;-0.01;74.70;101950.25;5043791;28;20606;-66
2022/02/28 06:35:28;;;;;;;29.97;18.50;;;;;;;0.22;74.28;101951.56;5042126;28;20444;-66
2022/02/28 06:37:57;;;;;;;25.50;16.47;;;;;;;1.05;74.20;101955.78;5044113;28;20449;-66
2022/02/28 06:40:24;;;;;;;25.93;17.97;;;;;;;2.50;72.37;101953.59;5045150;28;20527;-66
2022/02/28 06:42:50;;;;;;;23.40;16.63;;;;;;;3.93;67.31;101944.41;5044131;28;20485;-66
2022/02/28 06:45:18;;;;;;;24.60;15.50;;;;;;;5.30;62.34;101943.47;5044338;28;20568;-66
2022/02/28 06:47:44;;;;;;;22.60;14.60;;;;;;;6.46;56.69;101944.53;5042629;28;20492;-66
2022/02/28 06:50:11;;;;;;;17.30;12.90;;;;;;;7.51;54.43;101942.91;5043067;28;20470;-66
2022/02/28 06:52:38;;;;;;;14.87;12.40;;;;;;;8.09;50.02;101943.47;5043923;28;20461;-66
2022/02/28 06:55:07;;;;;;;16.13;12.57;;;;;;;8.11;48.68;101942.41;5044109;28;20469;-64
2022/02/28 06:57:33;;;;;;;18.10;11.10;;;;;;;6.92;48.82;101933.47;5043372;28;20450;-64
2022/02/28 07:00:00;;;;;;;18.20;11.70;;;;;;;5.12;52.98;101934.50;5043447;28;20491;-66
2022/02/28 07:02:27;;;;;;;15.23;11.73;;;;;;;4.08;56.18;101935.06;5043234;28;20462;-66
2022/02/28 07:04:53;;;;;;;19.33;12.07;;;;;;;3.93;59.67;101941.75;5042523;28;20474;-66
2022/02/28 07:07:20;;;;;;;20.83;12.63;;;;;;;5.40;55.91;101941.28;5043676;28;20477;-66
2022/02/28 07:09:47;;;;;;;16.00;11.73;;;;;;;6.43;51.83;101943.81;5043687;28;20509;-66
2022/02/28 07:12:15;;;;;;;19.47;13.30;;;;;;;7.35;49.37;101941.97;5042909;28;20505;-66
2022/02/28 07:14:42;;;;;;;17.33;12.53;;;;;;;8.34;46.99;101944.78;5043701;28;20458;-66
2022/02/28 07:17:09;;;;;;;16.90;12.47;;;;;;;9.21;44.20;101946.97;5042472;28;20493;-66
2022/02/28 07:19:36;;;;;;;19.47;12.70;;;;;;;10.26;42.69;101949.50;5042657;28;20434;-66
2022/02/28 07:22:03;;;;;;;14.63;10.80;;;;;;;10.83;40.80;101937.88;5043495;28;20940;-67
2022/02/28 07:24:30;;;;;;;21.83;12.77;;;;;;;9.34;42.22;101937.31;5043007;28;20480;-66
2022/02/28 07:26:56;;;;;;;20.30;14.03;;;;;;;6.43;48.62;101936.72;5042596;28;20441;-66
2022/02/28 07:29:25;;;;;;;17.00;13.60;;;;;;;4.87;54.08;101937.28;5043671;28;20458;-66
2022/02/28 07:31:51;;;;;;;18.47;14.67;;;;;;;4.45;56.23;101946.03;5042459;28;20548;-64
2022/02/28 07:34:19;;;;;;;21.43;15.83;;;;;;;6.25;52.66;101953.50;5041886;28;20470;-64
2022/02/28 07:36:46;;;;;;;21.43;14.10;;;;;;;8.43;46.73;101953.13;5043005;28;20477;-64
2022/02/28 07:39:13;;;;;;;19.57;14.90;;;;;;;9.48;43.15;101951.63;5040305;28;20496;-64
2022/02/28 07:41:41;;;;;;;16.50;12.73;;;;;;;10.27;41.82;101956.56;5040557;28;20454;-65
2022/02/28 07:44:08;;;;;;;19.67;13.70;;;;;;;11.39;39.15;101959.13;5041906;28;20486;-65
2022/02/28 07:46:36;;;;;;;16.30;12.80;;;;;;;12.43;37.27;101960.88;5040651;28;20997;-65
2022/02/28 07:49:02;;;;;;;18.80;13.63;;;;;;;12.96;35.63;101960.59;5038720;28;21089;-64
2022/02/28 07:51:29;;;;;;;18.43;12.87;;;;;;;13.13;35.20;101970.91;5041176;28;20485;-64
2022/02/28 07:53:56;;;;;;;16.03;13.43;;;;;;;13.52;34.45;101970.72;5041395;28;20525;-67
2022/02/28 07:56:22;;;;;;;14.83;12.80;;;;;;;13.34;34.50;101967.63;5040711;28;20474;-67
2022/02/28 07:58:49;;;;;;;16.53;13.43;;;;;;;13.97;33.35;101973.50;5041071;28;20454;-67
2022/02/28 08:01:16;;;;;;;15.00;13.40;;;;;;;13.05;34.45;101959.03;5040396;28;20469;-67
2022/02/28 08:03:44;;;;;;;14.30;12.57;;;;;;;12.96;35.16;101968.63;5038318;28;20468;-67
2022/02/28 08:06:10;;;;;;;15.10;13.50;;;;;;;12.00;36.74;101972.81;5041090;28;20498;-67
2022/02/28 08:08:37;;;;;;;15.47;12.07;;;;;;;12.29;36.35;101975.28;5040988;28;20521;-64
2022/02/28 08:11:04;;;;;;;16.60;12.87;;;;;;;12.94;35.04;101968.75;5039930;28;20524;-64
2022/02/28 08:13:31;;;;;;;15.47;13.87;;;;;;;12.98;34.56;101972.06;5040640;28;20442;-64
2022/02/28 08:15:59;;;;;;;14.73;12.00;;;;;;;12.79;35.13;101976.13;5040288;28;20468;-64
2022/02/28 08:18:26;;;;;;;13.87;11.87;;;;;;;14.52;32.64;101975.50;5039558;28;20515;-64
2022/02/28 08:20:54;;;;;;;13.97;12.23;;;;;;;15.66;30.48;101979.50;5040043;28;20517;-64
2022/02/28 08:23:20;;;;;;;14.57;13.07;;;;;;;15.94;29.49;101978.88;5040874;28;20434;-64
2022/02/28 08:25:47;;;;;;;13.07;11.67;;;;;;;15.27;30.43;101977.38;5038841;28;20486;-65
2022/02/28 08:28:14;;;;;;;14.70;12.30;;;;;;;14.03;32.84;101977.56;5038469;28;20476;-65
2022/02/28 08:30:41;;;;;;;14.93;12.57;;;;;;;14.86;31.64;101976.31;5040020;28;20520;-64
2022/02/28 08:33:08;;;;;;;16.53;12.67;;;;;;;14.63;31.65;101981.75;5038272;28;20480;-64
2022/02/28 08:35:35;;;;;;;14.33;12.57;;;;;;;15.28;30.89;101976.41;5040049;28;20478;-64
2022/02/28 08:38:04;;;;;;;13.30;11.87;;;;;;;15.53;30.07;101980.56;5039856;28;20476;-64
2022/02/28 08:40:31;;;;;;;13.20;11.90;;;;;;;15.46;30.33;101974.00;5039200;28;20449;-64
2022/02/28 08:42:58;;;;;;;15.80;11.90;;;;;;;16.08;29.28;101979.53;5039244;28;20957;-65
2022/02/28 08:45:25;;;;;;;13.00;10.90;;;;;;;15.34;30.62;101967.78;5039732;28;20558;-64
2022/02/28 08:47:51;;;;;;;12.60;10.90;;;;;;;16.62;29.06;101972.06;5037868;28;20481;-65
2022/02/28 08:50:19;;;;;;;14.30;11.80;;;;;;;16.07;29.35;101967.03;5039794;28;20543;-65
2022/02/28 08:52:46;;;;;;;14.33;12.00;;;;;;;15.72;30.14;101969.06;5040074;28;20480;-65
2022/02/28 08:55:14;;;;;;;12.43;10.47;;;;;;;15.45;30.31;101975.00;5038819;28;20456;-65
2022/02/28 08:57:41;;;;;;;14.30;11.50;;;;;;;15.38;29.66;101961.19;5039184;28;20545;-65
2022/02/28 09:00:09;;;;;;;13.90;10.97;;;;;;;14.96;31.50;101971.84;5039508;28;20445;-65
2022/02/28 09:02:36;;;;;;;12.63;10.87;;;;;;;14.78;31.35;101968.00;5037454;28;20833;-67
2022/02/28 09:05:03;;;;;;;14.30;10.93;;;;;;;14.67;31.57;101968.91;5037967;28;20506;-65
2022/02/28 09:07:29;;;;;;;14.07;10.97;;;;;;;14.23;32.50;101963.38;5040156;28;20488;-65
2022/02/28 09:09:56;;;;;;;12.63;10.53;;;;;;;14.95;31.77;101970.16;5039216;28;20438;-65
2022/02/28 09:12:24;;;;;;;13.07;10.90;;;;;;;15.10;31.35;101964.47;5039219;28;20481;-65
2022/02/28 09:14:51;;;;;;;12.77;10.70;;;;;;;15.10;31.27;101967.16;5039638;28;20450;-66
2022/02/28 09:17:17;;;;;;;10.43;9.10;;;;;;;14.96;31.11;101973.69;5039389;28;20454;-67
2022/02/28 09:19:44;;;;;;;12.10;8.80;;;;;;;15.09;30.77;101966.31;5038698;28;20469;-64
2022/02/28 09:22:11;;;;;;;11.60;9.60;;;;;;;15.68;29.83;101970.31;5039432;28;20477;-64
2022/02/28 09:24:38;;;;;;;9.83;8.63;;;;;;;16.39;28.33;101975.00;5039502;28;20576;-64
2022/02/28 09:27:07;;;;;;;9.97;8.93;;;;;;;14.49;30.26;101964.00;5038541;28;20437;-64
2022/02/28 09:29:35;;;;;;;11.27;9.50;;;;;;;15.59;29.07;101971.13;5039791;28;20442;-66
2022/02/28 09:32:03;;;;;;;10.00;9.10;;;;;;;15.11;30.42;101969.75;5038668;28;20456;-66
2022/02/28 09:34:30;;;;;;;12.30;10.20;;;;;;;13.86;32.41;101976.19;5038474;28;20464;-66
2022/02/28 09:36:56;;;;;;;10.97;9.07;;;;;;;15.00;30.72;101969.78;5039605;28;20485;-67
2022/02/28 09:39:23;;;;;;;11.20;9.60;;;;;;;15.04;30.71;101977.47;5039442;28;20469;-64
2022/02/28 09:41:50;;;;;;;12.07;10.20;;;;;;;14.49;31.80;101964.00;5038790;28;20521;-64
2022/02/28 09:44:17;;;;;;;11.80;9.70;;;;;;;13.58;33.07;101956.84;5039655;28;20461;-64
2022/02/28 09:46:45;;;;;;;12.23;9.47;;;;;;;14.39;32.23;101963.03;5038987;28;20460;-65
2022/02/28 09:49:12;;;;;;;14.80;10.73;;;;;;;14.86;31.42;101965.56;5038491;28;20513;-65
2022/02/28 09:51:41;;;;;;;11.40;9.57;;;;;;;14.66;32.26;101962.63;5038854;28;20457;-65
2022/02/28 09:54:08;;;;;;;12.70;10.47;;;;;;;14.35;33.39;101969.63;5039661;28;20457;-65
2022/02/28 09:56:36;;;;;;;13.33;10.37;;;;;;;13.93;33.67;101951.38;5038686;28;20557;-65
2022/02/28 09:59:04;;;;;;;13.63;10.27;;;;;;;13.10;35.25;101959.56;5039459;28;20446;-65
2022/02/28 10:01:31;;;;;;;11.77;10.40;;;;;;;13.21;34.87;101969.47;5039221;28;20825;-65
2022/02/28 10:03:59;;;;;;;13.63;9.97;;;;;;;12.60;36.28;101967.69;5036593;28;20442;-65
2022/02/28 10:06:25;;;;;;;12.77;10.10;;;;;;;12.51;36.41;101969.22;5038908;28;20477;-65
2022/02/28 10:08:54;;;;;;;12.97;11.47;;;;;;;13.19;35.26;101965.09;5038803;28;20490;-65
2022/02/28 10:11:25;;;;;;;13.00;10.47;;;;;;;13.35;34.86;101970.19;5038332;28;20450;-65
2022/02/28 10:13:53;;;;;;;11.93;9.67;;;;;;;12.80;35.60;101958.19;5039491;28;20446;-65
2022/02/28 10:16:30;;;;;;;11.33;9.93;;;;;;;13.21;35.20;101956.94;5039090;28;20450;-65
2022/02/28 10:18:57;;;;;;;12.20;9.87;;;;;;;13.11;34.86;101961.28;5037128;28;20460;-65
2022/02/28 10:21:40;;;;;;;12.03;9.50;;;;;;;12.95;36.02;101964.22;5038754;28;20531;-67
2022/02/28 10:24:08;;;;;;;12.37;9.50;;;;;;;13.77;34.05;101961.63;5039384;28;20756;-65
2022/02/28 10:26:40;;;;;;;10.77;9.23;;;;;;;12.69;35.90;101961.66;5037003;28;20497;-65
2022/02/28 10:29:07;;;;;;;13.30;9.13;;;;;;;12.95;35.12;101961.53;5039080;28;20434;-66
2022/02/28 10:31:35;;;;;;;13.47;9.67;;;;;;;12.41;36.14;101957.44;5038644;28;20458;-66
2022/02/28 10:34:12;;;;;;;11.53;8.57;;;;;;;13.39;35.27;101957.38;5036938;28;20450;-66
2022/02/28 10:36:41;;;;;;;11.93;9.53;;;;;;;12.81;35.82;101957.19;5038673;28;20441;-66
2022/02/28 10:39:10;;;;;;;10.53;9.40;;;;;;;12.62;36.43;101958.56;5038984;28;20445;-66
2022/02/28 10:41:38;;;;;;;11.60;9.50;;;;;;;12.35;37.35;101963.25;5037645;28;20489;-65
2022/02/28 10:44:06;;;;;;;10.63;9.23;;;;;;;13.44;34.84;101963.28;5039138;28;20454;-65
2022/02/28 10:46:36;;;;;;;12.07;8.50;;;;;;;13.05;35.56;101953.66;5038006;28;20490;-65
2022/02/28 10:49:07;;;;;;;11.40;9.53;;;;;;;12.62;34.39;101955.03;5037917;28;21149;-65
2022/02/28 10:51:46;;;;;;;13.37;9.80;;;;;;;12.84;35.84;101950.75;5039620;28;20490;-65
2022/02/28 10:54:15;;;;;;;13.60;10.00;;;;;;;13.50;34.60;101956.56;5042230;28;20935;-65
2022/02/28 10:56:54;;;;;;;12.10;9.23;;;;;;;11.35;35.63;101957.59;5041655;28;20464;-65
2022/02/28 10:59:22;;;;;;;10.17;8.57;;;;;;;12.18;36.77;101953.72;5042858;28;20433;-65
2022/02/28 11:01:50;;;;;;;10.67;8.77;;;;;;;13.52;34.70;101957.28;5041976;28;20499;-65
2022/02/28 11:04:16;;;;;;;9.57;8.53;;;;;;;13.37;34.53;101943.22;5039483;28;20476;-65
2022/02/28 11:06:49;;;;;;;12.50;10.30;;;;;;;14.14;33.47;101947.97;5041976;28;20481;-66
2022/02/28 11:09:29;;;;;;;11.40;8.90;;;;;;;13.02;34.72;101941.34;5042571;28;21161;-66
2022/02/28 11:12:00;;;;;;;13.30;10.00;;;;;;;12.49;33.90;101954.22;5041265;28;21045;-66
2022/02/28 11:14:27;;;;;;;10.47;9.47;;;;;;;12.20;34.58;101936.56;5041996;28;21022;-66